• Join FlightAware (Why Join?)
  • Login
  • US Flag 
11:25AM EST


 

Airport Tracker/Info


-or-


 

Live Flight TrackerFlight Track Log ✈ LOF3416 ✈ 13-Jul-2013 ✈ KROC - KORD

Flight Track Log - Related Links

Times and Time Zones

All times are in EDT time to prevent confusion due to time zone crossing. See the LOF3416 flight status page for this flight to view local times or setup timezone preferences in your user account.

Time Position Orientation Groundspeed Altitude Reporting Facility
EDT Latitude Longitude Course Direction KTS MPH feet Rate Location/Type
07:13PM 43.0953 -77.7003 281° West 152 175 1,400  Level Cleveland Center
07:14PM 43.0772 -77.7239 224° Southwest 173 199 2,700 1,860 Climbing Cleveland Center
07:15PM 43.0814 -77.8089 274° West 197 227 4,700 1,860 Climbing Cleveland Center
07:16PM 43.1003 -77.9047 285° West 220 253 6,700 2,160 Climbing Cleveland Center
07:17PM 43.1654 -78.1869 278° West  Level FlightAware Approximate
07:17PM 43.1192 -78.0006 285° West 251 289 9,100  Level Cleveland Center
07:18PM 43.1834 -78.3164 281° West  Level FlightAware Approximate
07:18PM 43.1381 -78.1050 284° West 273 314 10,700  Level Cleveland Center
07:19PM 43.1572 -78.2239 283° West 299 344 11,900 1,260 Climbing Cleveland Center
07:20PM 43.1764 -78.3456 282° West 316 364 13,300 1,320 Climbing Cleveland Center
07:21PM 43.1975 -78.4700 283° West 335 386 14,600 1,500 Climbing Cleveland Center
07:22PM 43.2206 -78.5947 284° West 335 386 16,400 1,620 Climbing Cleveland Center
07:23PM 43.2453 -78.7108 286° West 329 379 17,900 1,020 Climbing Cleveland Center
07:24PM 43.2681 -78.8356 284° West 335 386 18,500 720 Climbing Cleveland Center
07:24PM 43.2667 -78.8833 268° West 340 391 19,100 1,020 Climbing Toronto Center
07:25PM 43.3000 -79.0167 289° West 350 403 20,100 900 Climbing Toronto Center
07:26PM 43.3000 -79.1500 270° West 360 414 21,000 900 Climbing Toronto Center
07:27PM 43.2833 -79.2833 260° West 360 414 22,000 1,140 Climbing Toronto Center
07:28PM 43.2667 -79.4333 261° West 360 414 23,300 1,200 Climbing Toronto Center
07:29PM 43.2333 -79.5667 251° West 350 403 24,500 1,080 Climbing Toronto Center
07:30PM 43.2333 -79.6833 270° West 350 403 25,500 1,020 Climbing Toronto Center
07:31PM 43.2167 -79.8167 260° West 350 403 26,600 1,140 Climbing Toronto Center
07:32PM 43.1833 -79.9500 251° West 350 403 27,800 1,080 Climbing Toronto Center
07:33PM 43.1667 -80.0667 259° West 350 403 28,800 960 Climbing Toronto Center
07:34PM 43.1500 -80.2000 260° West 360 414 29,800 600 Climbing Toronto Center
07:35PM 43.1333 -80.3667 262° West 370 426 30,000 60 Climbing Toronto Center
07:36PM 43.1167 -80.5000 260° West 390 449 30,000  Level Toronto Center
07:37PM 43.1000 -80.6667 262° West 410 472 30,000  Level Toronto Center
07:38PM 43.0667 -80.8167 253° West 420 483 30,000  Level Toronto Center
07:39PM 43.0500 -80.9500 260° West 420 483 30,000  Level Toronto Center
07:40PM 43.0167 -81.1333 256° West 430 495 30,000  Level Toronto Center
07:41PM 43.0167 -81.3000 270° West 430 495 30,000  Level Toronto Center
07:42PM 43.0167 -81.4500 270° West 430 495 30,000  Level Toronto Center
07:43PM 43.0167 -81.6167 270° West 440 506 30,000  Level Toronto Center
07:44PM 43.0167 -81.8000 270° West 440 506 30,000  Level Toronto Center
07:45PM 43.0000 -81.9667 262° West 440 506 30,000  Level Toronto Center
07:46PM 43.0000 -82.1333 270° West 440 506 30,000  Level Toronto Center
07:47PM 43.0000 -82.3000 270° West 440 506 30,000  Level Toronto Center
07:48PM 43.0000 -82.4667 270° West 440 506 30,000  Level Toronto Center
07:49PM 43.0000 -82.6167 270° West 440 506 30,000  Level Toronto Center
07:50PM 42.9833 -82.8000 263° West 440 506 30,000  Level Toronto Center
07:51PM 42.9833 -82.9667 270° West 440 506 30,000  Level Toronto Center
07:52PM 42.9667 -83.1167 261° West 440 506 30,000 -300 Level Toronto Center
07:53PM 42.9500 -83.3000 263° West 440 506 29,400 -900 Descending Toronto Center
07:54PM 42.9500 -83.4667 270° West 450 518 28,300 -720 Descending Toronto Center
07:55PM 42.9333 -83.6333 262° West 460 529 28,000 -180 Descending Toronto Center
07:56PM 42.9167 -83.8000 262° West 450 518 28,000  Level Toronto Center
07:57PM 42.9167 -83.9833 270° West 450 518 28,000  Level Toronto Center
07:58PM 42.9000 -84.1333 261° West 450 518 28,000  Level Toronto Center
07:59PM 42.8833 -84.3167 263° West 450 518 28,000  Level Toronto Center
08:00PM 42.8833 -84.4833 270° West 450 518 28,000  Level Toronto Center
08:01PM 42.8500 -84.6667 256° West 450 518 28,000  Level Toronto Center
08:02PM 42.8500 -84.8167 270° West 450 518 28,000  Level Toronto Center
08:03PM 42.8167 -85.0000 256° West 450 518 28,000  Level Toronto Center
08:05PM 42.8192 -85.1994 271° West 446 513 28,000 -300 Level Chicago Center
08:06PM 42.8011 -85.3697 262° West 453 521 27,300 -1,020 Descending Chicago Center
08:07PM 42.7792 -85.5417 260° West 460 529 26,000 -1,320 Descending Chicago Center
08:08PM 42.7475 -85.7114 256° West 460 529 24,600 -1,500 Descending Chicago Center
08:09PM 42.7164 -85.8856 256° West 468 539 23,000 -1,860 Descending Chicago Center
08:10PM 42.6797 -86.0850 256° West 452 520 20,900 -1,500 Descending Chicago Center
08:11PM 42.6508 -86.2464 256° West 439 505 20,000 -1,260 Descending Chicago Center
08:12PM 42.6194 -86.4069 255° West 439 505 18,400 -1,920 Descending Chicago Center
08:13PM 42.5906 -86.5578 255° West 418 481 16,100 -2,280 Descending Chicago Center
08:14PM 42.5636 -86.7086 256° West 412 474 13,800 -2,100 Descending Chicago Center
08:15PM 42.5286 -86.8475 251° West 396 456 11,800 -1,680 Descending Chicago Center
08:16PM 42.4911 -86.9825 249° West 386 444 10,400 -900 Descending Chicago Center
08:17PM 42.4458 -87.1422 249° West 375 432 10,000 -240 Descending Chicago Center
08:18PM 42.4117 -87.2706 250° West 372 428 10,000  Level Chicago Center
08:19PM 42.3769 -87.3986 250° West 369 425 10,000  Level Chicago Center
08:20PM 42.3392 -87.5286 249° West 372 428 10,000 -60 Level Chicago Center
08:21PM 42.2647 -87.6139 220° Southwest 354 407 9,900 -300 Descending Chicago Center
08:22PM 42.1931 -87.6914 219° Southwest 270 311 9,400 -780 Descending Chicago Center
08:23PM 42.1636 -87.7544 238° Southwest 227 261 8,400 -1,020 Descending Chicago Center
08:24PM 42.1631 -87.8297 269° West 205 236 7,300 -840 Descending Chicago Center
08:25PM 42.1672 -87.9061 274° West 206 237 6,800 -960 Descending Chicago Center
08:26PM 42.1875 -87.9769 291° West 203 234 5,400 -1,200 Descending Chicago Center
08:27PM 42.2056 -88.0453 290° West 199 229 4,400 -720 Descending Chicago Center
08:29PM 42.1903 -88.1167 254° West 193 222 4,000 -300 Descending Chicago Center
08:30PM 42.1428 -88.1072 172° South 180 207 3,800 -480 Descending Chicago Center
08:31PM 42.1075 -88.0669 140° Southeast 169 194 3,100 -600 Descending Chicago Center
08:32PM 42.0733 -88.0297 141° Southeast 163 188 2,600 -480 Descending Chicago Center
08:33PM 42.0433 -87.9939 138° Southeast 155 178 2,200 -420 Descending Chicago Center